sensor_id;sensor_type;location;lat;lon;timestamp;P1;durP1;ratioP1;P2;durP2;ratioP2
44925;SDS011;30662;51.210;7.656;2023-03-23T00:02:00;5.22;;;3.40;;
44925;SDS011;30662;51.210;7.656;2023-03-23T00:04:26;5.43;;;3.13;;
44925;SDS011;30662;51.210;7.656;2023-03-23T00:06:54;5.90;;;3.42;;
44925;SDS011;30662;51.210;7.656;2023-03-23T00:09:19;6.00;;;3.22;;
44925;SDS011;30662;51.210;7.656;2023-03-23T00:11:49;6.53;;;3.47;;
44925;SDS011;30662;51.210;7.656;2023-03-23T00:14:16;8.45;;;3.58;;
44925;SDS011;30662;51.210;7.656;2023-03-23T00:16:47;4.88;;;3.33;;
44925;SDS011;30662;51.210;7.656;2023-03-23T00:19:14;5.22;;;2.97;;
44925;SDS011;30662;51.210;7.656;2023-03-23T00:21:40;5.78;;;3.28;;
44925;SDS011;30662;51.210;7.656;2023-03-23T00:24:07;9.15;;;2.90;;
44925;SDS011;30662;51.210;7.656;2023-03-23T00:26:46;4.80;;;3.05;;
44925;SDS011;30662;51.210;7.656;2023-03-23T00:29:14;6.35;;;3.63;;
44925;SDS011;30662;51.210;7.656;2023-03-23T00:31:44;4.35;;;3.47;;
44925;SDS011;30662;51.210;7.656;2023-03-23T00:34:12;10.32;;;3.22;;
44925;SDS011;30662;51.210;7.656;2023-03-23T00:36:44;6.05;;;3.22;;
44925;SDS011;30662;51.210;7.656;2023-03-23T00:39:12;6.55;;;2.70;;
44925;SDS011;30662;51.210;7.656;2023-03-23T00:41:37;4.18;;;2.63;;
44925;SDS011;30662;51.210;7.656;2023-03-23T00:44:03;7.35;;;2.80;;
44925;SDS011;30662;51.210;7.656;2023-03-23T00:46:29;4.93;;;2.75;;
44925;SDS011;30662;51.210;7.656;2023-03-23T00:48:55;6.07;;;3.35;;
44925;SDS011;30662;51.210;7.656;2023-03-23T00:51:22;8.50;;;3.13;;
44925;SDS011;30662;51.210;7.656;2023-03-23T00:53:49;5.78;;;2.58;;
44925;SDS011;30662;51.210;7.656;2023-03-23T00:56:15;6.00;;;3.35;;
44925;SDS011;30662;51.210;7.656;2023-03-23T00:58:40;3.78;;;2.22;;
44925;SDS011;30662;51.210;7.656;2023-03-23T01:01:07;5.15;;;2.38;;
44925;SDS011;30662;51.210;7.656;2023-03-23T01:03:32;5.30;;;2.30;;
44925;SDS011;30662;51.210;7.656;2023-03-23T01:06:03;6.05;;;2.42;;
44925;SDS011;30662;51.210;7.656;2023-03-23T01:08:37;4.53;;;2.60;;
44925;SDS011;30662;51.210;7.656;2023-03-23T01:11:11;5.10;;;2.15;;
44925;SDS011;30662;51.210;7.656;2023-03-23T01:13:39;5.82;;;2.20;;
44925;SDS011;30662;51.210;7.656;2023-03-23T01:16:05;2.67;;;2.30;;
44925;SDS011;30662;51.210;7.656;2023-03-23T01:18:31;4.80;;;2.20;;
44925;SDS011;30662;51.210;7.656;2023-03-23T01:20:57;4.40;;;2.42;;
44925;SDS011;30662;51.210;7.656;2023-03-23T01:23:22;4.90;;;2.53;;
44925;SDS011;30662;51.210;7.656;2023-03-23T01:25:48;4.72;;;2.33;;
44925;SDS011;30662;51.210;7.656;2023-03-23T01:28:14;5.25;;;2.85;;
44925;SDS011;30662;51.210;7.656;2023-03-23T01:30:40;4.13;;;2.08;;
44925;SDS011;30662;51.210;7.656;2023-03-23T01:33:06;3.17;;;2.15;;
44925;SDS011;30662;51.210;7.656;2023-03-23T01:35:32;3.13;;;2.17;;
44925;SDS011;30662;51.210;7.656;2023-03-23T01:37:57;2.97;;;2.30;;
44925;SDS011;30662;51.210;7.656;2023-03-23T01:40:23;3.25;;;2.33;;
44925;SDS011;30662;51.210;7.656;2023-03-23T01:42:51;7.38;;;2.47;;
44925;SDS011;30662;51.210;7.656;2023-03-23T01:48:21;4.70;;;2.60;;
44925;SDS011;30662;51.210;7.656;2023-03-23T01:50:50;2.80;;;1.90;;
44925;SDS011;30662;51.210;7.656;2023-03-23T01:53:31;2.70;;;2.25;;
44925;SDS011;30662;51.210;7.656;2023-03-23T01:56:03;3.53;;;2.50;;
44925;SDS011;30662;51.210;7.656;2023-03-23T01:58:31;2.45;;;2.15;;
44925;SDS011;30662;51.210;7.656;2023-03-23T02:00:58;4.80;;;2.10;;
44925;SDS011;30662;51.210;7.656;2023-03-23T02:03:29;4.15;;;3.08;;
44925;SDS011;30662;51.210;7.656;2023-03-23T02:05:56;3.17;;;2.55;;
44925;SDS011;30662;51.210;7.656;2023-03-23T02:08:24;5.53;;;2.78;;
44925;SDS011;30662;51.210;7.656;2023-03-23T02:10:53;6.03;;;2.42;;
44925;SDS011;30662;51.210;7.656;2023-03-23T02:13:19;2.88;;;2.10;;
44925;SDS011;30662;51.210;7.656;2023-03-23T02:27:05;4.28;;;2.65;;
44925;SDS011;30662;51.210;7.656;2023-03-23T02:32:41;4.13;;;2.55;;
44925;SDS011;30662;51.210;7.656;2023-03-23T02:35:31;3.72;;;2.30;;
44925;SDS011;30662;51.210;7.656;2023-03-23T02:38:10;3.83;;;2.40;;
44925;SDS011;30662;51.210;7.656;2023-03-23T02:40:45;4.55;;;2.75;;
44925;SDS011;30662;51.210;7.656;2023-03-23T02:43:15;3.45;;;2.75;;
44925;SDS011;30662;51.210;7.656;2023-03-23T02:45:45;6.43;;;3.35;;
44925;SDS011;30662;51.210;7.656;2023-03-23T02:48:12;3.92;;;2.72;;
44925;SDS011;30662;51.210;7.656;2023-03-23T02:50:40;6.90;;;3.75;;
44925;SDS011;30662;51.210;7.656;2023-03-23T02:53:10;4.57;;;3.20;;
44925;SDS011;30662;51.210;7.656;2023-03-23T02:55:39;2.40;;;2.20;;
44925;SDS011;30662;51.210;7.656;2023-03-23T02:58:08;3.53;;;2.88;;
44925;SDS011;30662;51.210;7.656;2023-03-23T03:00:34;4.90;;;2.90;;
44925;SDS011;30662;51.210;7.656;2023-03-23T03:03:00;3.17;;;2.42;;
44925;SDS011;30662;51.210;7.656;2023-03-23T03:08:11;4.57;;;3.10;;
44925;SDS011;30662;51.210;7.656;2023-03-23T03:13:47;5.88;;;2.70;;
44925;SDS011;30662;51.210;7.656;2023-03-23T03:18:54;3.95;;;2.50;;
44925;SDS011;30662;51.210;7.656;2023-03-23T03:21:34;3.67;;;2.78;;
44925;SDS011;30662;51.210;7.656;2023-03-23T03:24:03;3.00;;;2.50;;
44925;SDS011;30662;51.210;7.656;2023-03-23T03:26:40;9.90;;;2.60;;
44925;SDS011;30662;51.210;7.656;2023-03-23T03:29:22;3.65;;;2.53;;
44925;SDS011;30662;51.210;7.656;2023-03-23T03:31:56;2.85;;;2.50;;
44925;SDS011;30662;51.210;7.656;2023-03-23T03:34:24;5.97;;;2.40;;
44925;SDS011;30662;51.210;7.656;2023-03-23T03:36:51;4.75;;;2.85;;
44925;SDS011;30662;51.210;7.656;2023-03-23T03:39:20;4.68;;;2.80;;
44925;SDS011;30662;51.210;7.656;2023-03-23T03:41:46;5.80;;;2.55;;
44925;SDS011;30662;51.210;7.656;2023-03-23T03:44:13;4.90;;;2.95;;
44925;SDS011;30662;51.210;7.656;2023-03-23T03:46:38;2.45;;;2.08;;
44925;SDS011;30662;51.210;7.656;2023-03-23T03:49:06;4.13;;;3.42;;
44925;SDS011;30662;51.210;7.656;2023-03-23T03:51:33;4.38;;;3.30;;
44925;SDS011;30662;51.210;7.656;2023-03-23T03:53:59;4.13;;;2.83;;
44925;SDS011;30662;51.210;7.656;2023-03-23T03:56:25;3.92;;;3.22;;
44925;SDS011;30662;51.210;7.656;2023-03-23T03:58:51;7.45;;;2.75;;
44925;SDS011;30662;51.210;7.656;2023-03-23T04:01:18;4.10;;;2.45;;
44925;SDS011;30662;51.210;7.656;2023-03-23T04:03:46;4.57;;;2.55;;
44925;SDS011;30662;51.210;7.656;2023-03-23T04:06:12;3.50;;;2.42;;
44925;SDS011;30662;51.210;7.656;2023-03-23T04:08:37;4.05;;;2.90;;
44925;SDS011;30662;51.210;7.656;2023-03-23T04:11:04;2.90;;;2.60;;
44925;SDS011;30662;51.210;7.656;2023-03-23T04:13:30;4.03;;;2.88;;
44925;SDS011;30662;51.210;7.656;2023-03-23T04:15:56;3.30;;;2.33;;
44925;SDS011;30662;51.210;7.656;2023-03-23T04:18:21;3.50;;;2.22;;
44925;SDS011;30662;51.210;7.656;2023-03-23T04:20:48;3.45;;;2.83;;
44925;SDS011;30662;51.210;7.656;2023-03-23T04:23:14;3.05;;;2.35;;
44925;SDS011;30662;51.210;7.656;2023-03-23T04:25:48;5.18;;;2.15;;
44925;SDS011;30662;51.210;7.656;2023-03-23T04:28:15;3.75;;;2.38;;
44925;SDS011;30662;51.210;7.656;2023-03-23T04:30:44;2.28;;;2.08;;
44925;SDS011;30662;51.210;7.656;2023-03-23T04:33:14;2.40;;;2.20;;
44925;SDS011;30662;51.210;7.656;2023-03-23T04:35:41;3.85;;;2.63;;
44925;SDS011;30662;51.210;7.656;2023-03-23T04:38:08;2.40;;;2.20;;
44925;SDS011;30662;51.210;7.656;2023-03-23T04:40:37;3.20;;;2.40;;
44925;SDS011;30662;51.210;7.656;2023-03-23T04:43:05;7.43;;;2.97;;
44925;SDS011;30662;51.210;7.656;2023-03-23T04:45:31;2.45;;;2.15;;
44925;SDS011;30662;51.210;7.656;2023-03-23T04:47:58;2.75;;;2.38;;
44925;SDS011;30662;51.210;7.656;2023-03-23T04:50:28;2.75;;;2.15;;
44925;SDS011;30662;51.210;7.656;2023-03-23T04:52:56;3.90;;;1.98;;
44925;SDS011;30662;51.210;7.656;2023-03-23T04:55:24;4.50;;;2.38;;
44925;SDS011;30662;51.210;7.656;2023-03-23T04:57:51;3.35;;;2.05;;
44925;SDS011;30662;51.210;7.656;2023-03-23T05:00:17;3.03;;;2.28;;
44925;SDS011;30662;51.210;7.656;2023-03-23T05:02:43;2.35;;;2.00;;
44925;SDS011;30662;51.210;7.656;2023-03-23T05:05:12;7.85;;;3.40;;
44925;SDS011;30662;51.210;7.656;2023-03-23T05:07:40;3.22;;;2.90;;
44925;SDS011;30662;51.210;7.656;2023-03-23T05:10:07;4.68;;;3.13;;
44925;SDS011;30662;51.210;7.656;2023-03-23T05:12:34;5.88;;;2.50;;
44925;SDS011;30662;51.210;7.656;2023-03-23T05:15:00;4.75;;;2.38;;
44925;SDS011;30662;51.210;7.656;2023-03-23T05:17:25;3.88;;;2.28;;
44925;SDS011;30662;51.210;7.656;2023-03-23T05:19:52;3.83;;;2.20;;
44925;SDS011;30662;51.210;7.656;2023-03-23T05:22:18;3.03;;;2.30;;
44925;SDS011;30662;51.210;7.656;2023-03-23T05:24:46;4.68;;;2.97;;
44925;SDS011;30662;51.210;7.656;2023-03-23T05:27:12;2.90;;;2.60;;
44925;SDS011;30662;51.210;7.656;2023-03-23T05:29:40;3.53;;;2.80;;
44925;SDS011;30662;51.210;7.656;2023-03-23T05:32:08;4.75;;;2.75;;
44925;SDS011;30662;51.210;7.656;2023-03-23T05:34:35;3.33;;;2.78;;
44925;SDS011;30662;51.210;7.656;2023-03-23T05:37:01;4.72;;;2.53;;
44925;SDS011;30662;51.210;7.656;2023-03-23T05:39:28;4.63;;;2.97;;
44925;SDS011;30662;51.210;7.656;2023-03-23T05:41:54;4.75;;;2.90;;
44925;SDS011;30662;51.210;7.656;2023-03-23T05:44:20;2.70;;;2.50;;
44925;SDS011;30662;51.210;7.656;2023-03-23T05:46:46;4.28;;;2.63;;
44925;SDS011;30662;51.210;7.656;2023-03-23T05:49:12;4.65;;;2.80;;
44925;SDS011;30662;51.210;7.656;2023-03-23T05:51:39;7.07;;;3.00;;
44925;SDS011;30662;51.210;7.656;2023-03-23T05:54:05;4.72;;;2.70;;
44925;SDS011;30662;51.210;7.656;2023-03-23T05:56:30;4.72;;;3.28;;
44925;SDS011;30662;51.210;7.656;2023-03-23T05:58:56;4.78;;;3.33;;
44925;SDS011;30662;51.210;7.656;2023-03-23T06:01:23;4.13;;;2.88;;
44925;SDS011;30662;51.210;7.656;2023-03-23T06:03:49;4.15;;;3.38;;
44925;SDS011;30662;51.210;7.656;2023-03-23T06:06:19;4.63;;;4.13;;
44925;SDS011;30662;51.210;7.656;2023-03-23T06:08:45;4.95;;;2.70;;
44925;SDS011;30662;51.210;7.656;2023-03-23T06:11:13;3.70;;;3.33;;
44925;SDS011;30662;51.210;7.656;2023-03-23T06:13:39;3.17;;;2.58;;
44925;SDS011;30662;51.210;7.656;2023-03-23T06:16:05;6.65;;;2.97;;
44925;SDS011;30662;51.210;7.656;2023-03-23T06:18:31;3.70;;;2.88;;
44925;SDS011;30662;51.210;7.656;2023-03-23T06:20:58;3.53;;;2.65;;
44925;SDS011;30662;51.210;7.656;2023-03-23T06:23:25;3.28;;;2.70;;
44925;SDS011;30662;51.210;7.656;2023-03-23T06:25:58;3.50;;;2.58;;
44925;SDS011;30662;51.210;7.656;2023-03-23T06:28:26;3.60;;;2.85;;
44925;SDS011;30662;51.210;7.656;2023-03-23T06:30:52;2.83;;;2.55;;
44925;SDS011;30662;51.210;7.656;2023-03-23T06:33:18;3.72;;;2.80;;
44925;SDS011;30662;51.210;7.656;2023-03-23T06:35:44;3.95;;;2.60;;
44925;SDS011;30662;51.210;7.656;2023-03-23T06:38:10;5.43;;;3.05;;
44925;SDS011;30662;51.210;7.656;2023-03-23T06:40:36;4.68;;;2.45;;
44925;SDS011;30662;51.210;7.656;2023-03-23T06:43:02;3.80;;;2.55;;
44925;SDS011;30662;51.210;7.656;2023-03-23T06:45:29;3.10;;;2.80;;
44925;SDS011;30662;51.210;7.656;2023-03-23T06:47:55;5.22;;;2.90;;
44925;SDS011;30662;51.210;7.656;2023-03-23T06:50:21;4.10;;;2.78;;
44925;SDS011;30662;51.210;7.656;2023-03-23T06:52:47;4.68;;;2.20;;
44925;SDS011;30662;51.210;7.656;2023-03-23T06:55:14;4.35;;;2.75;;
44925;SDS011;30662;51.210;7.656;2023-03-23T06:57:45;6.40;;;3.58;;
44925;SDS011;30662;51.210;7.656;2023-03-23T07:00:11;5.22;;;2.65;;
44925;SDS011;30662;51.210;7.656;2023-03-23T07:02:39;5.60;;;3.20;;
44925;SDS011;30662;51.210;7.656;2023-03-23T07:05:06;3.28;;;2.60;;
44925;SDS011;30662;51.210;7.656;2023-03-23T07:07:32;3.58;;;1.95;;
44925;SDS011;30662;51.210;7.656;2023-03-23T07:09:58;3.63;;;2.28;;
44925;SDS011;30662;51.210;7.656;2023-03-23T07:12:23;4.65;;;2.30;;
44925;SDS011;30662;51.210;7.656;2023-03-23T07:14:49;4.57;;;1.90;;
44925;SDS011;30662;51.210;7.656;2023-03-23T07:17:15;3.10;;;2.40;;
44925;SDS011;30662;51.210;7.656;2023-03-23T07:19:40;3.85;;;2.08;;
44925;SDS011;30662;51.210;7.656;2023-03-23T07:22:06;8.90;;;7.78;;
44925;SDS011;30662;51.210;7.656;2023-03-23T07:24:33;6.35;;;2.70;;
44925;SDS011;30662;51.210;7.656;2023-03-23T07:26:59;5.03;;;2.72;;
44925;SDS011;30662;51.210;7.656;2023-03-23T07:29:29;3.70;;;2.05;;
44925;SDS011;30662;51.210;7.656;2023-03-23T07:31:55;3.22;;;2.65;;
44925;SDS011;30662;51.210;7.656;2023-03-23T07:34:20;3.00;;;2.17;;
44925;SDS011;30662;51.210;7.656;2023-03-23T07:36:46;3.78;;;2.20;;
44925;SDS011;30662;51.210;7.656;2023-03-23T07:39:14;11.60;;;2.67;;
44925;SDS011;30662;51.210;7.656;2023-03-23T07:41:40;3.65;;;2.00;;
44925;SDS011;30662;51.210;7.656;2023-03-23T07:44:05;3.30;;;1.67;;
44925;SDS011;30662;51.210;7.656;2023-03-23T07:46:31;3.58;;;2.00;;
44925;SDS011;30662;51.210;7.656;2023-03-23T07:48:57;2.85;;;2.10;;
44925;SDS011;30662;51.210;7.656;2023-03-23T07:51:24;3.97;;;2.42;;
44925;SDS011;30662;51.210;7.656;2023-03-23T07:53:50;4.65;;;2.45;;
44925;SDS011;30662;51.210;7.656;2023-03-23T07:56:16;4.00;;;2.17;;
44925;SDS011;30662;51.210;7.656;2023-03-23T07:58:45;4.15;;;2.22;;
44925;SDS011;30662;51.210;7.656;2023-03-23T08:01:12;4.38;;;1.90;;
44925;SDS011;30662;51.210;7.656;2023-03-23T08:03:37;3.33;;;1.92;;
44925;SDS011;30662;51.210;7.656;2023-03-23T08:06:03;4.75;;;1.60;;
44925;SDS011;30662;51.210;7.656;2023-03-23T08:08:29;4.30;;;2.15;;
44925;SDS011;30662;51.210;7.656;2023-03-23T08:10:55;3.70;;;1.80;;
44925;SDS011;30662;51.210;7.656;2023-03-23T08:13:21;2.05;;;1.40;;
44925;SDS011;30662;51.210;7.656;2023-03-23T08:15:46;3.38;;;1.60;;
44925;SDS011;30662;51.210;7.656;2023-03-23T08:18:12;4.78;;;2.05;;
44925;SDS011;30662;51.210;7.656;2023-03-23T08:20:37;2.88;;;1.45;;
44925;SDS011;30662;51.210;7.656;2023-03-23T08:23:03;3.58;;;1.63;;
44925;SDS011;30662;51.210;7.656;2023-03-23T08:25:29;3.42;;;1.70;;
44925;SDS011;30662;51.210;7.656;2023-03-23T08:27:58;3.63;;;1.98;;
44925;SDS011;30662;51.210;7.656;2023-03-23T08:30:26;4.72;;;3.15;;
44925;SDS011;30662;51.210;7.656;2023-03-23T08:32:55;2.40;;;1.55;;
44925;SDS011;30662;51.210;7.656;2023-03-23T08:35:22;4.82;;;1.90;;
44925;SDS011;30662;51.210;7.656;2023-03-23T08:37:48;4.72;;;1.35;;
44925;SDS011;30662;51.210;7.656;2023-03-23T08:40:16;1.85;;;1.48;;
44925;SDS011;30662;51.210;7.656;2023-03-23T08:42:44;3.05;;;1.67;;
44925;SDS011;30662;51.210;7.656;2023-03-23T08:45:11;2.88;;;1.67;;
44925;SDS011;30662;51.210;7.656;2023-03-23T08:47:38;6.85;;;2.45;;
44925;SDS011;30662;51.210;7.656;2023-03-23T08:50:06;3.63;;;1.73;;
44925;SDS011;30662;51.210;7.656;2023-03-23T08:52:33;4.03;;;1.85;;
44925;SDS011;30662;51.210;7.656;2023-03-23T08:54:58;4.88;;;2.45;;
44925;SDS011;30662;51.210;7.656;2023-03-23T08:57:24;3.25;;;1.75;;
44925;SDS011;30662;51.210;7.656;2023-03-23T08:59:51;4.68;;;1.88;;
44925;SDS011;30662;51.210;7.656;2023-03-23T09:02:19;4.32;;;1.48;;
44925;SDS011;30662;51.210;7.656;2023-03-23T09:04:45;5.80;;;1.67;;
44925;SDS011;30662;51.210;7.656;2023-03-23T09:07:11;3.65;;;2.00;;
44925;SDS011;30662;51.210;7.656;2023-03-23T09:09:39;2.35;;;1.55;;
44925;SDS011;30662;51.210;7.656;2023-03-23T09:12:06;2.70;;;1.77;;
44925;SDS011;30662;51.210;7.656;2023-03-23T09:14:33;4.80;;;1.60;;
44925;SDS011;30662;51.210;7.656;2023-03-23T09:17:00;3.15;;;1.52;;
44925;SDS011;30662;51.210;7.656;2023-03-23T09:19:26;3.88;;;1.60;;
44925;SDS011;30662;51.210;7.656;2023-03-23T09:21:52;2.45;;;1.75;;
44925;SDS011;30662;51.210;7.656;2023-03-23T09:24:18;5.78;;;2.10;;
44925;SDS011;30662;51.210;7.656;2023-03-23T09:26:44;3.42;;;1.88;;
44925;SDS011;30662;51.210;7.656;2023-03-23T09:29:10;2.70;;;1.77;;
44925;SDS011;30662;51.210;7.656;2023-03-23T09:31:36;4.30;;;1.75;;
44925;SDS011;30662;51.210;7.656;2023-03-23T09:34:01;2.53;;;1.30;;
44925;SDS011;30662;51.210;7.656;2023-03-23T09:36:28;5.55;;;1.83;;
44925;SDS011;30662;51.210;7.656;2023-03-23T09:38:57;2.50;;;1.27;;
44925;SDS011;30662;51.210;7.656;2023-03-23T09:47:05;4.63;;;1.75;;
44925;SDS011;30662;51.210;7.656;2023-03-23T09:49:41;3.15;;;1.70;;
44925;SDS011;30662;51.210;7.656;2023-03-23T09:52:11;5.28;;;1.50;;
44925;SDS011;30662;51.210;7.656;2023-03-23T09:54:40;4.90;;;2.05;;
44925;SDS011;30662;51.210;7.656;2023-03-23T09:57:16;4.65;;;1.35;;
44925;SDS011;30662;51.210;7.656;2023-03-23T10:02:43;5.18;;;2.17;;
44925;SDS011;30662;51.210;7.656;2023-03-23T10:07:54;5.13;;;1.50;;
44925;SDS011;30662;51.210;7.656;2023-03-23T10:10:20;3.88;;;1.70;;
44925;SDS011;30662;51.210;7.656;2023-03-23T10:13:04;5.38;;;2.00;;
44925;SDS011;30662;51.210;7.656;2023-03-23T10:15:48;4.80;;;1.35;;
44925;SDS011;30662;51.210;7.656;2023-03-23T10:18:36;3.47;;;1.33;;
44925;SDS011;30662;51.210;7.656;2023-03-23T10:21:03;2.35;;;1.40;;
44925;SDS011;30662;51.210;7.656;2023-03-23T10:28:43;3.78;;;1.40;;
44925;SDS011;30662;51.210;7.656;2023-03-23T10:31:12;4.47;;;1.48;;
44925;SDS011;30662;51.210;7.656;2023-03-23T10:33:47;4.32;;;1.55;;
44925;SDS011;30662;51.210;7.656;2023-03-23T10:36:19;4.57;;;1.67;;
44925;SDS011;30662;51.210;7.656;2023-03-23T10:39:10;5.93;;;1.90;;
44925;SDS011;30662;51.210;7.656;2023-03-23T10:41:39;4.63;;;1.70;;
44925;SDS011;30662;51.210;7.656;2023-03-23T10:44:14;3.70;;;1.70;;
44925;SDS011;30662;51.210;7.656;2023-03-23T10:49:25;4.65;;;1.70;;
44925;SDS011;30662;51.210;7.656;2023-03-23T10:52:03;6.55;;;2.10;;
44925;SDS011;30662;51.210;7.656;2023-03-23T10:54:37;7.35;;;1.95;;
44925;SDS011;30662;51.210;7.656;2023-03-23T10:57:21;5.00;;;1.48;;
44925;SDS011;30662;51.210;7.656;2023-03-23T10:59:57;5.07;;;2.03;;
44925;SDS011;30662;51.210;7.656;2023-03-23T11:02:23;6.07;;;2.08;;
44925;SDS011;30662;51.210;7.656;2023-03-23T11:04:56;3.25;;;1.60;;
44925;SDS011;30662;51.210;7.656;2023-03-23T11:07:27;6.15;;;1.30;;
44925;SDS011;30662;51.210;7.656;2023-03-23T11:09:56;6.15;;;2.22;;
44925;SDS011;30662;51.210;7.656;2023-03-23T11:12:28;4.53;;;1.52;;
44925;SDS011;30662;51.210;7.656;2023-03-23T11:15:44;6.22;;;2.22;;
44925;SDS011;30662;51.210;7.656;2023-03-23T11:17:56;2.75;;;1.20;;
44925;SDS011;30662;51.210;7.656;2023-03-23T11:20:24;5.68;;;2.20;;
44925;SDS011;30662;51.210;7.656;2023-03-23T11:22:51;8.20;;;3.25;;
44925;SDS011;30662;51.210;7.656;2023-03-23T11:25:18;3.53;;;2.03;;
44925;SDS011;30662;51.210;7.656;2023-03-23T11:27:44;5.97;;;1.42;;
44925;SDS011;30662;51.210;7.656;2023-03-23T11:30:20;4.70;;;1.80;;
44925;SDS011;30662;51.210;7.656;2023-03-23T11:32:49;4.53;;;1.70;;
44925;SDS011;30662;51.210;7.656;2023-03-23T11:35:21;5.47;;;2.00;;
44925;SDS011;30662;51.210;7.656;2023-03-23T11:37:52;7.60;;;2.45;;
44925;SDS011;30662;51.210;7.656;2023-03-23T11:40:23;4.60;;;2.17;;
44925;SDS011;30662;51.210;7.656;2023-03-23T11:43:01;6.95;;;3.00;;
44925;SDS011;30662;51.210;7.656;2023-03-23T11:45:36;8.95;;;2.38;;
44925;SDS011;30662;51.210;7.656;2023-03-23T11:50:56;5.80;;;2.15;;
44925;SDS011;30662;51.210;7.656;2023-03-23T11:53:35;7.07;;;2.42;;
44925;SDS011;30662;51.210;7.656;2023-03-23T11:56:11;6.63;;;2.72;;
44925;SDS011;30662;51.210;7.656;2023-03-23T11:58:45;4.85;;;2.05;;
44925;SDS011;30662;51.210;7.656;2023-03-23T12:03:55;5.18;;;2.03;;
44925;SDS011;30662;51.210;7.656;2023-03-23T12:16:19;3.25;;;1.80;;
44925;SDS011;30662;51.210;7.656;2023-03-23T12:24:27;4.35;;;2.17;;
44925;SDS011;30662;51.210;7.656;2023-03-23T12:30:11;2.78;;;1.67;;
44925;SDS011;30662;51.210;7.656;2023-03-23T12:35:39;3.08;;;1.48;;
44925;SDS011;30662;51.210;7.656;2023-03-23T12:41:20;2.35;;;1.38;;
44925;SDS011;30662;51.210;7.656;2023-03-23T12:44:09;1.40;;;1.00;;
44925;SDS011;30662;51.210;7.656;2023-03-23T12:49:28;4.50;;;1.15;;
44925;SDS011;30662;51.210;7.656;2023-03-23T13:07:52;1.80;;;1.02;;
44925;SDS011;30662;51.210;7.656;2023-03-23T13:10:38;1.98;;;1.08;;
44925;SDS011;30662;51.210;7.656;2023-03-23T13:13:13;3.10;;;1.08;;
44925;SDS011;30662;51.210;7.656;2023-03-23T13:15:55;1.98;;;1.15;;
44925;SDS011;30662;51.210;7.656;2023-03-23T13:18:47;0.90;;;0.90;;
44925;SDS011;30662;51.210;7.656;2023-03-23T13:21:24;0.90;;;0.88;;
44925;SDS011;30662;51.210;7.656;2023-03-23T13:23:57;2.60;;;1.10;;
44925;SDS011;30662;51.210;7.656;2023-03-23T13:26:31;1.67;;;1.10;;
44925;SDS011;30662;51.210;7.656;2023-03-23T13:31:39;2.97;;;1.33;;
44925;SDS011;30662;51.210;7.656;2023-03-23T13:37:05;2.20;;;1.20;;
44925;SDS011;30662;51.210;7.656;2023-03-23T13:39:57;1.85;;;1.33;;
44925;SDS011;30662;51.210;7.656;2023-03-23T13:42:47;3.95;;;1.80;;
44925;SDS011;30662;51.210;7.656;2023-03-23T13:47:43;5.75;;;2.00;;
44925;SDS011;30662;51.210;7.656;2023-03-23T13:55:21;3.88;;;1.98;;
44925;SDS011;30662;51.210;7.656;2023-03-23T14:03:03;3.65;;;1.75;;
44925;SDS011;30662;51.210;7.656;2023-03-23T14:05:34;4.65;;;1.92;;
44925;SDS011;30662;51.210;7.656;2023-03-23T14:13:20;5.07;;;1.75;;
44925;SDS011;30662;51.210;7.656;2023-03-23T14:15:56;3.83;;;1.50;;
44925;SDS011;30662;51.210;7.656;2023-03-23T14:18:22;5.35;;;1.60;;
44925;SDS011;30662;51.210;7.656;2023-03-23T14:20:51;4.30;;;1.45;;
44925;SDS011;30662;51.210;7.656;2023-03-23T14:23:17;5.10;;;2.03;;
44925;SDS011;30662;51.210;7.656;2023-03-23T14:25:44;2.63;;;1.23;;
44925;SDS011;30662;51.210;7.656;2023-03-23T14:28:19;9.20;;;2.25;;
44925;SDS011;30662;51.210;7.656;2023-03-23T14:30:47;4.45;;;1.60;;
44925;SDS011;30662;51.210;7.656;2023-03-23T14:33:17;4.05;;;1.60;;
44925;SDS011;30662;51.210;7.656;2023-03-23T14:35:45;2.60;;;1.50;;
44925;SDS011;30662;51.210;7.656;2023-03-23T14:38:17;4.03;;;2.88;;
44925;SDS011;30662;51.210;7.656;2023-03-23T14:40:48;5.10;;;1.55;;
44925;SDS011;30662;51.210;7.656;2023-03-23T14:43:15;2.90;;;1.13;;
44925;SDS011;30662;51.210;7.656;2023-03-23T14:45:45;2.28;;;1.13;;
44925;SDS011;30662;51.210;7.656;2023-03-23T14:48:13;3.03;;;1.23;;
44925;SDS011;30662;51.210;7.656;2023-03-23T14:50:51;2.20;;;1.13;;
44925;SDS011;30662;51.210;7.656;2023-03-23T14:53:19;3.83;;;1.58;;
44925;SDS011;30662;51.210;7.656;2023-03-23T14:55:48;5.93;;;1.67;;
44925;SDS011;30662;51.210;7.656;2023-03-23T14:58:16;2.72;;;1.10;;
44925;SDS011;30662;51.210;7.656;2023-03-23T15:01:05;1.30;;;0.82;;
44925;SDS011;30662;51.210;7.656;2023-03-23T15:03:35;3.95;;;1.42;;
44925;SDS011;30662;51.210;7.656;2023-03-23T15:06:06;4.35;;;1.50;;
44925;SDS011;30662;51.210;7.656;2023-03-23T15:08:37;4.38;;;1.42;;
44925;SDS011;30662;51.210;7.656;2023-03-23T15:11:05;2.95;;;1.20;;
44925;SDS011;30662;51.210;7.656;2023-03-23T15:13:32;2.88;;;1.30;;
44925;SDS011;30662;51.210;7.656;2023-03-23T15:16:03;3.55;;;1.48;;
44925;SDS011;30662;51.210;7.656;2023-03-23T15:18:58;3.10;;;1.55;;
44925;SDS011;30662;51.210;7.656;2023-03-23T15:23:55;3.33;;;1.55;;
44925;SDS011;30662;51.210;7.656;2023-03-23T15:26:26;3.72;;;1.50;;
44925;SDS011;30662;51.210;7.656;2023-03-23T15:29:01;2.03;;;1.10;;
44925;SDS011;30662;51.210;7.656;2023-03-23T15:31:38;3.80;;;1.60;;
44925;SDS011;30662;51.210;7.656;2023-03-23T15:34:10;3.33;;;1.52;;
44925;SDS011;30662;51.210;7.656;2023-03-23T15:36:39;5.47;;;1.58;;
44925;SDS011;30662;51.210;7.656;2023-03-23T15:39:05;3.22;;;1.65;;
44925;SDS011;30662;51.210;7.656;2023-03-23T15:41:31;8.38;;;3.58;;
44925;SDS011;30662;51.210;7.656;2023-03-23T15:43:58;6.82;;;1.98;;
44925;SDS011;30662;51.210;7.656;2023-03-23T15:46:35;6.28;;;1.88;;
44925;SDS011;30662;51.210;7.656;2023-03-23T15:51:28;5.15;;;2.10;;
44925;SDS011;30662;51.210;7.656;2023-03-23T15:53:55;3.42;;;1.98;;
44925;SDS011;30662;51.210;7.656;2023-03-23T15:56:22;8.88;;;2.00;;
44925;SDS011;30662;51.210;7.656;2023-03-23T15:58:48;5.00;;;2.10;;
44925;SDS011;30662;51.210;7.656;2023-03-23T16:01:24;5.57;;;2.30;;
44925;SDS011;30662;51.210;7.656;2023-03-23T16:03:55;5.32;;;2.15;;
44925;SDS011;30662;51.210;7.656;2023-03-23T16:06:25;4.25;;;1.92;;
44925;SDS011;30662;51.210;7.656;2023-03-23T16:08:55;4.20;;;2.10;;
44925;SDS011;30662;51.210;7.656;2023-03-23T16:11:22;4.43;;;1.95;;
44925;SDS011;30662;51.210;7.656;2023-03-23T16:13:49;2.95;;;1.98;;
44925;SDS011;30662;51.210;7.656;2023-03-23T16:16:21;2.97;;;1.67;;
44925;SDS011;30662;51.210;7.656;2023-03-23T16:18:49;3.75;;;2.03;;
44925;SDS011;30662;51.210;7.656;2023-03-23T16:21:15;4.57;;;2.17;;
44925;SDS011;30662;51.210;7.656;2023-03-23T16:23:41;5.20;;;2.08;;
44925;SDS011;30662;51.210;7.656;2023-03-23T16:26:09;4.03;;;1.65;;
44925;SDS011;30662;51.210;7.656;2023-03-23T16:28:35;2.65;;;2.00;;
44925;SDS011;30662;51.210;7.656;2023-03-23T16:31:02;6.07;;;2.20;;
44925;SDS011;30662;51.210;7.656;2023-03-23T16:33:28;6.32;;;2.42;;
44925;SDS011;30662;51.210;7.656;2023-03-23T16:35:54;5.35;;;2.25;;
44925;SDS011;30662;51.210;7.656;2023-03-23T16:38:22;5.40;;;2.30;;
44925;SDS011;30662;51.210;7.656;2023-03-23T16:40:49;6.43;;;3.15;;
44925;SDS011;30662;51.210;7.656;2023-03-23T16:43:15;4.55;;;2.65;;
44925;SDS011;30662;51.210;7.656;2023-03-23T16:45:42;6.28;;;2.22;;
44925;SDS011;30662;51.210;7.656;2023-03-23T16:48:09;6.45;;;2.60;;
44925;SDS011;30662;51.210;7.656;2023-03-23T16:50:37;7.32;;;2.70;;
44925;SDS011;30662;51.210;7.656;2023-03-23T16:53:04;6.82;;;2.55;;
44925;SDS011;30662;51.210;7.656;2023-03-23T16:55:32;6.15;;;2.33;;
44925;SDS011;30662;51.210;7.656;2023-03-23T16:57:58;8.32;;;2.38;;
44925;SDS011;30662;51.210;7.656;2023-03-23T17:00:41;4.65;;;1.80;;
44925;SDS011;30662;51.210;7.656;2023-03-23T17:03:08;7.63;;;2.33;;